首页
METAR-TAF:

METAR-TAF

机场 :

庞卡城, 奧克拉荷馬州, 美国

纬度: 36-43-50N, 经度: 097-05-59W, 海拔: 307米

当前天气观测

该预报发布于17分钟前的10:53 UTC
风速11节,风向
温度 3°C
湿度 87%
气压 1021 hPa
能見度: 16.1公里
阴天层高于1500英尺

METAR: KPNC 221053Z AUTO 01011KT 10SM OVC015 03/01 A3014 RMK AO2 RAB38E49 SLP210 P0000 T00280006

时间: 05:10 (11:10 UTC)

预报

该预报发布于5小时和50分钟前的05:20 UTC
预报有效从22日的 06点(UTC)到 23日的 06点(UTC)
风速10节,风向北转东北
能見度: 10公里
阴天层高于1500英尺
短暂存在
从 22日的 06点(UTC)到 22日的 09点(UTC)
能見度: 8.0公里
阴天层高于700英尺
小雨, 毛毛雨, 轻雾
从 22日的 0900点(UTC)
风速10节,风向北转东北
能見度: 10公里
阴天层高于700英尺
短暂存在
从 22日的 09点(UTC)到 22日的 13点(UTC)
能見度: 8.0公里
小雨
从 22日的 1400点(UTC)
风速11节,风向
能見度: 9.7公里
阴天层高于700英尺
轻雾
从 22日的 1800点(UTC)
风速9节,风向
能見度: 10公里
阴天层高于1500英尺

TAF: KPNC 220520Z 2206/2306 02010KT P6SM OVC015 TEMPO 2206/2209 5SM -RADZ BR OVC007 FM220900 02010KT P6SM OVC007 TEMPO 2209/2213 5SM -RA FM221400 01011KT 6SM BR OVC007 FM221800 36009KT P6SM OVC015

超过4000个机场的气象观测和天气预报(METAR&TAF报告)。

可查询的气象台以黄色和红色小点在地图上表示。

将鼠标移到小点上方,可查看气象台名称。

然后点击查看天气观测和预报。

如需切换地图:点击带黑十字的绿色按钮放大地图;点击带横线的绿色按钮缩小地图;或者点击绿色箭头查看邻近地区的地图。


METAR-TAF: